createdAt,value
2022-12-15T00:04:51.276Z,-1.30
2022-12-15T00:11:04.411Z,-1.40
2022-12-15T00:17:41.306Z,-1.40
2022-12-15T00:24:18.352Z,-1.30
2022-12-15T00:30:31.105Z,-1.30
2022-12-15T00:36:44.259Z,-1.20
2022-12-15T00:43:12.126Z,-1.20
2022-12-15T00:49:49.576Z,-1.10
2022-12-15T00:56:02.387Z,-1.10
2022-12-15T01:02:15.750Z,-1.20
2022-12-15T01:08:52.677Z,-1.30
2022-12-15T01:15:29.489Z,-1.30
2022-12-15T01:21:25.545Z,-1.40
2022-12-15T01:27:20.176Z,-1.60
2022-12-15T01:33:39.333Z,-1.60
2022-12-15T01:40:16.424Z,-1.70
2022-12-15T01:46:18.208Z,-1.70
2022-12-15T01:52:12.697Z,-1.70
2022-12-15T01:58:31.118Z,-1.80
2022-12-15T02:04:50.393Z,-1.80
2022-12-15T02:10:52.665Z,-1.70
2022-12-15T02:17:10.430Z,-1.50
2022-12-15T02:23:46.908Z,-1.50
2022-12-15T02:30:08.373Z,-1.50
2022-12-15T02:36:21.175Z,-1.40
2022-12-15T02:42:15.652Z,-1.40
2022-12-15T02:49:08.175Z,-1.20
2022-12-15T02:55:29.629Z,-1.10
2022-12-15T03:01:33.264Z,-0.90
2022-12-15T03:07:28.021Z,-0.90
2022-12-15T03:13:46.483Z,-0.80
2022-12-15T03:20:09.107Z,-0.70
2022-12-15T03:26:03.454Z,-0.80
2022-12-15T03:31:57.927Z,-0.80
2022-12-15T03:38:16.407Z,-0.80
2022-12-15T03:44:34.752Z,-0.70
2022-12-15T03:50:29.209Z,-0.70
2022-12-15T03:56:23.639Z,-0.70
2022-12-15T04:02:43.069Z,-0.70
2022-12-15T04:09:01.497Z,-0.70
2022-12-15T04:14:55.818Z,-0.70
2022-12-15T04:20:50.483Z,-0.70
2022-12-15T04:27:27.670Z,-0.80
2022-12-15T04:34:06.604Z,-0.80
2022-12-15T04:40:19.537Z,-0.80
2022-12-15T04:46:32.701Z,-0.90
2022-12-15T04:53:10.214Z,-0.90
2022-12-15T04:59:47.085Z,-1.00
2022-12-15T05:06:00.037Z,-1.10
2022-12-15T05:12:13.281Z,-1.30
2022-12-15T05:18:50.299Z,-1.50
2022-12-15T05:25:33.340Z,-1.40
2022-12-15T05:31:46.081Z,-1.50
2022-12-15T05:37:41.503Z,-1.60
2022-12-15T05:44:03.052Z,-1.70
2022-12-15T05:50:21.768Z,-1.70
2022-12-15T05:56:16.268Z,-1.80
2022-12-15T06:02:10.783Z,-1.80
2022-12-15T06:08:30.073Z,-1.80
2022-12-15T06:14:49.918Z,-1.90
2022-12-15T06:20:44.364Z,-2.00
2022-12-15T06:26:39.518Z,-2.00
2022-12-15T06:32:57.986Z,-2.10
2022-12-15T06:39:16.508Z,-2.10
2022-12-15T06:45:10.985Z,-2.00
2022-12-15T06:51:09.657Z,-2.10
2022-12-15T06:57:31.989Z,-2.10
2022-12-15T07:03:51.028Z,-2.10
2022-12-15T07:09:45.563Z,-2.20
2022-12-15T07:15:41.213Z,-2.20
2022-12-15T07:22:01.408Z,-2.20
2022-12-15T07:28:24.188Z,-2.20
2022-12-15T07:34:20.330Z,-2.20
2022-12-15T07:40:14.850Z,-2.30
2022-12-15T07:46:33.392Z,-2.20
2022-12-15T07:54:43.959Z,-2.20
2022-12-15T08:00:39.258Z,-2.10
2022-12-15T08:06:35.134Z,-2.20
2022-12-15T08:12:53.642Z,-2.10
2022-12-15T08:19:12.472Z,-2.00
2022-12-15T08:25:06.921Z,-1.90
2022-12-15T08:31:11.865Z,-1.90
2022-12-15T08:37:30.682Z,-1.80
2022-12-15T08:43:49.701Z,-1.70
2022-12-15T08:49:44.702Z,-1.50
2022-12-15T08:55:39.130Z,-1.40
2022-12-15T09:01:57.760Z,-1.10
2022-12-15T09:08:16.202Z,-0.90
2022-12-15T09:14:10.630Z,-0.80
2022-12-15T09:20:05.626Z,-0.60
2022-12-15T09:26:24.168Z,-0.20
2022-12-15T09:32:42.520Z,0.10
2022-12-15T09:38:38.283Z,0.60
2022-12-15T09:44:32.770Z,1.10
2022-12-15T09:50:52.630Z,1.40
2022-12-15T09:57:29.812Z,1.80
2022-12-15T10:03:34.086Z,2.50
2022-12-15T10:09:29.175Z,3.00
2022-12-15T10:16:01.177Z,3.50
2022-12-15T10:22:21.793Z,3.90
2022-12-15T10:28:17.491Z,3.80
2022-12-15T10:34:26.867Z,3.40
2022-12-15T10:40:51.169Z,3.00
2022-12-15T10:47:17.478Z,2.80
2022-12-15T10:53:29.316Z,2.90
2022-12-15T10:59:37.417Z,3.80
2022-12-15T11:05:56.564Z,4.40
2022-12-15T11:12:37.221Z,4.80
2022-12-15T11:18:45.555Z,5.00
2022-12-15T11:24:50.735Z,5.20
2022-12-15T11:31:37.294Z,5.50
2022-12-15T11:38:03.884Z,5.90
2022-12-15T11:50:50.967Z,5.90
2022-12-15T11:57:18.698Z,5.90
2022-12-15T12:03:48.158Z,6.30
2022-12-15T12:09:45.508Z,6.40
2022-12-15T12:15:55.715Z,6.50
2022-12-15T12:22:20.978Z,6.80
2022-12-15T12:28:50.931Z,6.90
2022-12-15T12:35:31.825Z,6.90
2022-12-15T12:41:45.244Z,6.80
2022-12-15T12:48:14.086Z,7.00
2022-12-15T12:54:32.477Z,7.00
2022-12-15T13:00:30.096Z,6.80
2022-12-15T13:06:36.493Z,6.90
2022-12-15T13:12:59.333Z,7.10
2022-12-15T13:19:17.702Z,7.00
2022-12-15T13:25:24.263Z,6.90
2022-12-15T13:31:19.213Z,7.00
2022-12-15T13:37:52.746Z,6.80
2022-12-15T13:44:30.803Z,6.80
2022-12-15T13:50:32.964Z,6.60
2022-12-15T13:56:49.151Z,6.50
2022-12-15T14:03:12.388Z,6.60
2022-12-15T14:09:32.559Z,6.60
2022-12-15T14:15:28.296Z,6.40
2022-12-15T14:21:24.662Z,6.10
2022-12-15T14:27:43.113Z,6.10
2022-12-15T14:34:13.620Z,6.00
2022-12-15T14:40:15.678Z,5.90
2022-12-15T14:46:12.522Z,5.80
2022-12-15T14:52:39.124Z,5.70
2022-12-15T14:59:04.480Z,5.70
2022-12-15T15:03:04.785Z,6.00
2022-12-15T15:05:07.576Z,5.40
2022-12-15T15:11:34.065Z,5.30
2022-12-15T15:17:59.487Z,5.10
2022-12-15T15:24:17.918Z,5.10
2022-12-15T15:30:17.364Z,5.10
2022-12-15T15:36:14.011Z,5.00
2022-12-15T15:42:32.925Z,4.80
2022-12-15T15:48:55.622Z,4.70
2022-12-15T15:54:49.973Z,4.40
2022-12-15T16:00:44.478Z,4.40
2022-12-15T16:07:03.912Z,4.60
2022-12-15T16:13:25.962Z,4.40
2022-12-15T16:19:20.885Z,4.00
2022-12-15T16:25:24.073Z,3.70
2022-12-15T16:31:45.670Z,3.40
2022-12-15T16:38:05.066Z,3.40
2022-12-15T16:43:59.401Z,3.80
2022-12-15T16:49:53.941Z,4.30
2022-12-15T16:56:14.327Z,4.60
2022-12-15T17:02:33.462Z,4.70
2022-12-15T17:08:30.220Z,4.50
2022-12-15T17:14:25.154Z,4.60
2022-12-15T17:20:43.654Z,4.60
2022-12-15T17:27:03.059Z,4.70
2022-12-15T17:32:57.486Z,4.50
2022-12-15T17:38:55.838Z,4.80
2022-12-15T17:45:23.287Z,5.00
2022-12-15T17:51:44.736Z,5.00
2022-12-15T17:57:39.093Z,5.00
2022-12-15T18:03:34.074Z,4.90
2022-12-15T18:09:52.881Z,5.00
2022-12-15T18:16:11.272Z,4.80
2022-12-15T18:22:06.509Z,4.70
2022-12-15T18:28:01.051Z,4.40
2022-12-15T18:34:21.144Z,4.10
2022-12-15T18:40:39.577Z,3.90
2022-12-15T18:46:34.104Z,3.50
2022-12-15T18:52:34.272Z,3.30
2022-12-15T18:58:53.263Z,3.10
2022-12-15T19:05:27.515Z,2.90
2022-12-15T19:11:25.021Z,2.80
2022-12-15T19:17:39.364Z,2.60
2022-12-15T19:23:57.817Z,2.50
2022-12-15T19:30:16.844Z,2.50
2022-12-15T19:36:15.496Z,2.60
2022-12-15T19:42:21.295Z,2.50
2022-12-15T19:48:39.805Z,2.60
2022-12-15T19:54:58.340Z,2.70
2022-12-15T20:00:52.813Z,3.00
2022-12-15T20:06:47.294Z,3.00
2022-12-15T20:13:05.821Z,2.90
2022-12-15T20:19:24.276Z,3.00
2022-12-15T20:25:19.384Z,3.00
2022-12-15T20:31:18.267Z,3.00
2022-12-15T20:37:37.052Z,3.00
2022-12-15T20:43:55.661Z,2.90
2022-12-15T20:49:50.496Z,2.90
2022-12-15T20:55:45.216Z,2.80
2022-12-15T21:02:16.041Z,2.80
2022-12-15T21:08:34.537Z,2.80
2022-12-15T21:14:29.133Z,2.90
2022-12-15T21:20:23.582Z,2.90
2022-12-15T21:26:42.040Z,2.90
2022-12-15T21:33:00.402Z,2.80
2022-12-15T21:38:55.068Z,2.70
2022-12-15T21:44:49.564Z,2.60
2022-12-15T21:51:16.459Z,2.40
2022-12-15T21:57:34.834Z,2.20
2022-12-15T22:03:29.301Z,2.00
2022-12-15T22:09:23.788Z,1.90
2022-12-15T22:15:42.295Z,1.80
2022-12-15T22:22:06.662Z,1.90
2022-12-15T22:28:00.981Z,2.00
2022-12-15T22:33:55.481Z,2.20
2022-12-15T22:40:14.239Z,2.50
2022-12-15T22:46:33.026Z,2.70
2022-12-15T22:52:27.637Z,3.20
2022-12-15T22:58:43.221Z,3.60
2022-12-15T23:05:01.790Z,3.90
2022-12-15T23:11:38.449Z,4.10
2022-12-15T23:17:32.846Z,4.10
2022-12-15T23:23:28.150Z,4.10
2022-12-15T23:29:46.602Z,4.10
2022-12-15T23:36:05.316Z,4.20
2022-12-15T23:41:59.721Z,4.30
2022-12-15T23:47:54.197Z,4.50
2022-12-15T23:54:12.696Z,4.50
